Terminal Aerodrome Forecast
Issued by NWS

Home | Current Version | Previous Version | Text Only | Print | Product List | Glossary Off
Versions: 1 2 3 4 5 6 7 8 9 10 11 12 13 14 15 16 17 18 19 20

538
FTUS43 KABR 232339
TAFATY
TAF
KATY 232339Z 2400/2424 32014G23KT P6SM SCT080
     FM240200 31007KT P6SM SKC
     FM241500 31019G27KT P6SM SCT060=

USA.gov is the U.S. government's official web portal to all federal, state and local government web resources and services.